TS86 weather

Public forecast

Using degrees Fahrenheit for public forecast. Weather courtesy of forecast.io.

Closest aviation weather report (METAR) to Community Hospital Heliport

Closest report is Houston Southwest Airport, 5.7 nm (10.5 km) SE. Retrieved 2020/08/15 08:35 UTC (0 seconds ago):

KAXH 150835Z AUTO 00000KT 10SM CLR 24/24 A2993 RMK AO2 T02420242

Closest aviation forecast (TAF) to Community Hospital Heliport

Closest forecast is Sugar Land Regional Airport, 6.0 nm (11.1 km) NW. Retrieved 2020/08/15 06:22 UTC (2 hours ago):

TAF KSGR 150520Z 1506/1606 18008KT P6SM SCT250 FM151200 23006KT P6SM SCT025 BKN120 FM151800 21006KT P6SM FEW045 SCT120 BKN250 FM152100 17008KT P6SM SCT060 SCT250 FM160200 18007KT P6SM FEW060 SCT250